createdAt,value
2022-10-09T00:00:50.148Z,98354.03
2022-10-09T00:03:17.658Z,98357.78
2022-10-09T00:05:44.919Z,98372.28
2022-10-09T00:08:11.796Z,98369.91
2022-10-09T00:10:42.503Z,98368.59
2022-10-09T00:13:08.968Z,98377.53
2022-10-09T00:15:44.092Z,98375.06
2022-10-09T00:18:13.095Z,98367.75
2022-10-09T00:20:42.152Z,98370.16
2022-10-09T00:23:09.198Z,98366.81
2022-10-09T00:25:36.675Z,98367.53
2022-10-09T00:28:04.318Z,98367.91
2022-10-09T00:30:31.384Z,98364.41
2022-10-09T00:32:57.837Z,98357.03
2022-10-09T00:35:24.316Z,98363.97
2022-10-09T00:37:50.689Z,98348.63
2022-10-09T00:40:17.320Z,98369.22
2022-10-09T00:42:45.702Z,98374.47
2022-10-09T00:45:21.198Z,98376.16
2022-10-09T00:47:50.686Z,98376.25
2022-10-09T00:50:26.669Z,98378.16
2022-10-09T00:52:57.298Z,98375.91
2022-10-09T00:55:25.107Z,98376.16
2022-10-09T00:57:55.057Z,98385.66
2022-10-09T01:00:22.155Z,98381.03
2022-10-09T01:02:48.879Z,98378.78
2022-10-09T01:05:16.115Z,98379.47
2022-10-09T01:07:57.744Z,98388.88
2022-10-09T01:10:50.303Z,98375.78
2022-10-09T01:13:26.826Z,98372.59
2022-10-09T01:16:02.917Z,98374.25
2022-10-09T01:18:38.170Z,98376.16
2022-10-09T01:21:20.663Z,98375.91
2022-10-09T01:23:59.113Z,98379.25
2022-10-09T01:26:53.561Z,98390.22
2022-10-09T01:29:23.037Z,98390.06
2022-10-09T01:31:51.808Z,98378.19
2022-10-09T01:34:20.990Z,98387.13
2022-10-09T01:36:48.004Z,98388.91
2022-10-09T01:39:19.012Z,98393.28
2022-10-09T01:41:48.030Z,98398.28
2022-10-09T01:44:18.756Z,98391.97
2022-10-09T01:46:45.918Z,98390.69
2022-10-09T01:49:40.015Z,98390.31
2022-10-09T01:52:25.847Z,98390.91
2022-10-09T01:55:06.375Z,98390.69
2022-10-09T01:57:43.844Z,98389.94
2022-10-09T02:00:12.261Z,98396.22
2022-10-09T02:02:40.310Z,98389.50
2022-10-09T02:05:09.527Z,98388.75
2022-10-09T02:07:37.027Z,98388.06
2022-10-09T02:10:05.940Z,98370.56
2022-10-09T02:12:37.168Z,98385.44
2022-10-09T02:15:04.679Z,98391.75
2022-10-09T02:17:36.737Z,98400.88
2022-10-09T02:20:12.621Z,98396.59
2022-10-09T02:22:39.045Z,98403.13
2022-10-09T02:25:06.697Z,98401.38
2022-10-09T02:27:34.193Z,98403.72
2022-10-09T02:30:01.406Z,98402.56
2022-10-09T02:32:28.934Z,98396.06
2022-10-09T02:34:55.384Z,98411.63
2022-10-09T02:37:21.807Z,98412.69
2022-10-09T02:39:48.341Z,98412.28
2022-10-09T02:42:14.726Z,98402.69
2022-10-09T02:44:41.138Z,98412.75
2022-10-09T02:47:07.531Z,98413.31
2022-10-09T02:49:34.062Z,98416.56
2022-10-09T02:52:00.480Z,98411.59
2022-10-09T02:54:26.913Z,98417.75
2022-10-09T02:56:53.400Z,98426.28
2022-10-09T02:59:19.794Z,98437.28
2022-10-09T03:01:46.378Z,98415.81
2022-10-09T03:04:12.908Z,98425.84
2022-10-09T03:06:39.364Z,98437.53
2022-10-09T03:09:05.965Z,98429.81
2022-10-09T03:11:32.415Z,98414.66
2022-10-09T03:13:58.850Z,98422.38
2022-10-09T03:16:26.678Z,98417.03
2022-10-09T03:18:54.055Z,98418.38
2022-10-09T03:21:23.339Z,98408.47
2022-10-09T03:23:50.773Z,98410.16
2022-10-09T03:26:20.592Z,98420.59
2022-10-09T03:28:48.875Z,98413.59
2022-10-09T03:31:33.389Z,98410.50
2022-10-09T03:34:03.599Z,98425.16
2022-10-09T03:36:30.061Z,98420.56
2022-10-09T03:38:56.445Z,98398.81
2022-10-09T03:41:23.010Z,98427.06
2022-10-09T03:43:49.449Z,98423.06
2022-10-09T03:46:15.971Z,98410.38
2022-10-09T03:48:42.374Z,98421.06
2022-10-09T03:51:08.811Z,98438.31
2022-10-09T03:53:35.497Z,98433.09
2022-10-09T03:56:01.997Z,98439.88
2022-10-09T03:58:28.407Z,98426.53
2022-10-09T04:00:54.955Z,98419.44
2022-10-09T04:03:21.682Z,98421.03
2022-10-09T04:05:48.104Z,98425.59
2022-10-09T04:08:14.565Z,98418.56
2022-10-09T04:10:41.125Z,98411.22
2022-10-09T04:13:07.564Z,98401.72
2022-10-09T04:15:35.234Z,98417.22
2022-10-09T04:18:01.664Z,98423.81
2022-10-09T04:20:28.097Z,98423.94
2022-10-09T04:22:54.496Z,98419.78
2022-10-09T04:25:21.069Z,98432.06
2022-10-09T04:27:47.667Z,98427.22
2022-10-09T04:30:14.272Z,98421.78
2022-10-09T04:32:40.632Z,98428.03
2022-10-09T04:35:07.456Z,98418.53
2022-10-09T04:37:35.485Z,98397.31
2022-10-09T04:40:01.881Z,98406.84
2022-10-09T04:42:28.247Z,98388.53
2022-10-09T04:44:54.626Z,98399.09
2022-10-09T04:47:21.049Z,98387.03
2022-10-09T04:49:47.511Z,98396.88
2022-10-09T04:52:13.899Z,98390.97
2022-10-09T04:54:40.432Z,98383.63
2022-10-09T04:57:06.812Z,98353.84
2022-10-09T04:59:33.237Z,98352.41
2022-10-09T05:01:59.669Z,98348.06
2022-10-09T05:04:26.187Z,98360.97
2022-10-09T05:06:52.566Z,98354.38
2022-10-09T05:09:19.054Z,98357.72
2022-10-09T05:11:45.502Z,98346.50
2022-10-09T05:14:11.978Z,98353.66
2022-10-09T05:17:08.267Z,98347.88
2022-10-09T05:19:24.816Z,98355.59
2022-10-09T05:21:51.192Z,98354.31
2022-10-09T05:24:17.616Z,98357.13
2022-10-09T05:26:43.992Z,98361.25
2022-10-09T05:29:10.453Z,98360.56
2022-10-09T05:31:37.615Z,98345.84
2022-10-09T05:34:04.576Z,98370.38
2022-10-09T05:36:31.095Z,98361.03
2022-10-09T05:38:57.929Z,98367.19
2022-10-09T05:41:24.326Z,98383.31
2022-10-09T05:43:50.841Z,98392.28
2022-10-09T05:46:23.714Z,98383.75
2022-10-09T05:49:00.671Z,98375.56
2022-10-09T05:51:30.359Z,98386.78
2022-10-09T05:53:57.718Z,98380.38
2022-10-09T05:56:29.767Z,98372.16
2022-10-09T05:58:58.666Z,98363.69
2022-10-09T06:01:27.873Z,98352.78
2022-10-09T06:03:56.925Z,98365.28
2022-10-09T06:06:26.734Z,98359.56
2022-10-09T06:08:53.864Z,98369.03
2022-10-09T06:11:31.576Z,98352.72
2022-10-09T06:14:00.099Z,98352.72
2022-10-09T06:16:29.256Z,98353.94
2022-10-09T06:18:56.810Z,98352.28
2022-10-09T06:21:23.786Z,98352.50
2022-10-09T06:24:01.195Z,98353.25
2022-10-09T06:26:29.551Z,98362.59
2022-10-09T06:28:57.263Z,98348.25
2022-10-09T06:31:26.201Z,98345.63
2022-10-09T06:33:53.892Z,98345.78
2022-10-09T06:36:25.022Z,98335.88
2022-10-09T06:38:52.412Z,98335.19
2022-10-09T06:41:21.762Z,98331.84
2022-10-09T06:43:56.300Z,98346.84
2022-10-09T06:46:25.190Z,98369.75
2022-10-09T06:48:52.191Z,98352.31
2022-10-09T06:51:20.367Z,98361.53
2022-10-09T06:53:49.175Z,98384.75
2022-10-09T06:56:17.017Z,98384.22
2022-10-09T06:58:44.485Z,98366.72
2022-10-09T07:01:16.778Z,98364.94
2022-10-09T07:03:46.647Z,98380.13
2022-10-09T07:06:19.617Z,98363.06
2022-10-09T07:08:48.417Z,98359.97
2022-10-09T07:11:16.649Z,98359.34
2022-10-09T07:13:45.043Z,98356.50
2022-10-09T07:16:11.622Z,98349.72
2022-10-09T07:18:38.466Z,98355.19
2022-10-09T07:21:08.289Z,98332.50
2022-10-09T07:23:36.202Z,98364.94
2022-10-09T07:26:13.266Z,98343.16
2022-10-09T07:28:41.160Z,98325.81
2022-10-09T07:31:08.040Z,98322.66
2022-10-09T07:33:34.771Z,98310.91
2022-10-09T07:36:02.879Z,98343.69
2022-10-09T07:38:29.375Z,98363.06
2022-10-09T07:41:00.625Z,98361.78
2022-10-09T07:43:27.082Z,98339.06
2022-10-09T07:45:53.519Z,98338.75
2022-10-09T07:48:19.921Z,98360.81
2022-10-09T07:50:46.277Z,98335.84
2022-10-09T07:53:12.643Z,98352.75
2022-10-09T07:55:45.399Z,98344.66
2022-10-09T07:58:11.970Z,98353.91
2022-10-09T08:00:38.490Z,98328.09
2022-10-09T08:03:04.940Z,98321.88
2022-10-09T08:05:31.374Z,98328.38
2022-10-09T08:07:57.870Z,98324.63
2022-10-09T08:10:24.418Z,98333.53
2022-10-09T08:12:51.532Z,98324.72
2022-10-09T08:15:18.188Z,98316.34
2022-10-09T08:17:44.571Z,98330.72
2022-10-09T08:20:10.993Z,98314.16
2022-10-09T08:22:37.384Z,98291.38
2022-10-09T08:25:04.185Z,98248.63
2022-10-09T08:27:30.611Z,98208.72
2022-10-09T08:29:57.034Z,98207.84
2022-10-09T08:32:23.479Z,98424.66
2022-10-09T08:34:49.903Z,98529.00
2022-10-09T08:37:16.654Z,98731.41
2022-10-09T08:39:43.079Z,98946.75
2022-10-09T08:42:24.551Z,99061.19
2022-10-09T08:44:51.059Z,99170.00
2022-10-09T08:47:17.387Z,99300.94
2022-10-09T08:49:51.518Z,99434.03
2022-10-09T08:52:26.932Z,99477.06
2022-10-09T08:54:58.278Z,99595.22
2022-10-09T08:57:29.506Z,99634.72
2022-10-09T08:59:56.405Z,99683.88
2022-10-09T09:02:41.089Z,99682.72
2022-10-09T09:05:21.615Z,99754.31
2022-10-09T09:08:05.445Z,99782.94
2022-10-09T09:10:40.622Z,99772.91
2022-10-09T09:13:17.996Z,99782.03
2022-10-09T09:15:55.636Z,99825.56
2022-10-09T09:18:58.905Z,99844.69
2022-10-09T09:21:49.632Z,99841.72
2022-10-09T09:24:20.836Z,99819.00
2022-10-09T09:26:51.862Z,99826.50
2022-10-09T09:29:24.399Z,99837.09
2022-10-09T09:36:16.654Z,99895.00
2022-10-09T09:39:02.681Z,99881.13
2022-10-09T09:41:29.645Z,99885.97
2022-10-09T09:43:56.073Z,99893.72
2022-10-09T09:46:27.294Z,99838.66
2022-10-09T09:48:53.750Z,99841.41
2022-10-09T09:51:30.202Z,99788.94
2022-10-09T09:54:00.320Z,99787.91
2022-10-09T09:57:10.298Z,99820.84
2022-10-09T09:59:26.648Z,99798.28
2022-10-09T10:02:01.769Z,99789.13
2022-10-09T10:04:28.543Z,99790.28
2022-10-09T10:06:55.472Z,99808.72
2022-10-09T10:09:22.112Z,99760.25
2022-10-09T10:12:00.890Z,99808.16
2022-10-09T10:14:28.272Z,99794.03
2022-10-09T10:16:57.165Z,99803.59
2022-10-09T10:19:29.502Z,99839.97
2022-10-09T10:22:05.602Z,99816.00
2022-10-09T10:24:43.513Z,99806.47
2022-10-09T10:27:34.963Z,99815.00
2022-10-09T10:30:05.209Z,99825.41
2022-10-09T10:32:36.119Z,99845.28
2022-10-09T10:35:09.738Z,99868.38
2022-10-09T10:37:54.283Z,99861.94
2022-10-09T10:40:20.685Z,99852.31
2022-10-09T10:43:06.365Z,99855.38
2022-10-09T10:45:41.241Z,99851.66
2022-10-09T10:48:22.246Z,99861.44
2022-10-09T10:51:23.888Z,99848.63
2022-10-09T10:54:05.436Z,99858.19
2022-10-09T10:56:38.542Z,99856.03
2022-10-09T10:59:35.829Z,99866.53
2022-10-09T11:02:32.658Z,99858.63
2022-10-09T11:05:08.491Z,99863.44
2022-10-09T11:07:44.910Z,99853.00
2022-10-09T11:10:17.647Z,99860.31
2022-10-09T11:12:58.080Z,99844.63
2022-10-09T11:15:37.566Z,99847.91
2022-10-09T11:18:18.909Z,99856.44
2022-10-09T11:21:00.659Z,99846.72
2022-10-09T11:23:38.496Z,99846.44
2022-10-09T11:26:18.580Z,99839.44
2022-10-09T11:29:13.188Z,99831.38
2022-10-09T11:31:46.192Z,99830.81
2022-10-09T11:34:20.552Z,99829.25
2022-10-09T11:36:47.468Z,99818.38
2022-10-09T11:39:20.162Z,99830.41
2022-10-09T11:41:48.887Z,99825.78
2022-10-09T11:44:27.430Z,99818.31
2022-10-09T11:47:05.556Z,99816.84
2022-10-09T11:49:55.311Z,99809.84
2022-10-09T11:52:39.596Z,99806.88
2022-10-09T11:55:18.140Z,99798.38
2022-10-09T11:57:44.726Z,99788.78
2022-10-09T12:00:11.732Z,99787.50
2022-10-09T12:02:39.910Z,99781.06
2022-10-09T12:05:18.015Z,99771.38
2022-10-09T12:07:45.126Z,99766.81
2022-10-09T12:10:33.581Z,99764.69
2022-10-09T12:13:04.311Z,99768.56
2022-10-09T12:15:58.888Z,99754.66
2022-10-09T12:18:29.954Z,99760.09
2022-10-09T12:20:59.311Z,99744.69
2022-10-09T12:23:29.124Z,99736.03
2022-10-09T12:25:56.714Z,99749.22
2022-10-09T12:28:45.756Z,99725.63
2022-10-09T12:31:34.798Z,99742.94
2022-10-09T12:34:23.147Z,99738.75
2022-10-09T12:36:49.585Z,99730.13
2022-10-09T12:39:24.154Z,99710.22
2022-10-09T12:41:55.423Z,99723.00
2022-10-09T12:44:39.749Z,99715.69
2022-10-09T12:47:09.354Z,99707.75
2022-10-09T12:49:36.343Z,99709.47
2022-10-09T12:52:03.238Z,99716.41
2022-10-09T12:54:31.259Z,99702.09
2022-10-09T12:56:59.660Z,99690.34
2022-10-09T12:59:27.846Z,99685.84
2022-10-09T13:01:58.296Z,99682.09
2022-10-09T13:04:31.661Z,99682.84
2022-10-09T13:07:02.801Z,99682.84
2022-10-09T13:09:37.199Z,99677.91
2022-10-09T13:12:16.203Z,99696.38
2022-10-09T13:14:59.622Z,99680.22
2022-10-09T13:20:24.299Z,99667.31
2022-10-09T13:23:02.429Z,99671.66
2022-10-09T13:25:34.885Z,99661.44
2022-10-09T13:28:02.781Z,99663.03
2022-10-09T13:30:29.365Z,99653.66
2022-10-09T13:32:56.252Z,99649.63
2022-10-09T13:35:22.912Z,99650.63
2022-10-09T13:37:49.945Z,99648.63
2022-10-09T13:40:20.519Z,99639.75
2022-10-09T13:42:52.752Z,99636.66
2022-10-09T13:45:19.410Z,99638.28
2022-10-09T13:47:45.926Z,99636.19
2022-10-09T13:50:16.266Z,99628.50
2022-10-09T13:52:42.799Z,99631.66
2022-10-09T13:55:09.974Z,99619.78
2022-10-09T13:57:36.455Z,99618.59
2022-10-09T14:00:04.075Z,99619.72
2022-10-09T14:02:30.474Z,99614.63
2022-10-09T14:04:56.890Z,99609.06
2022-10-09T14:07:23.314Z,99613.31
2022-10-09T14:09:49.717Z,99593.22
2022-10-09T14:12:16.162Z,99598.09
2022-10-09T14:14:42.603Z,99596.53
2022-10-09T14:17:08.993Z,99600.06
2022-10-09T14:19:35.620Z,99592.03
2022-10-09T14:22:02.007Z,99584.88
2022-10-09T14:24:28.563Z,99581.53
2022-10-09T14:26:54.978Z,99581.34
2022-10-09T14:29:21.477Z,99579.00
2022-10-09T14:31:51.337Z,99574.50
2022-10-09T14:34:17.794Z,99564.66
2022-10-09T14:36:44.236Z,99555.94
2022-10-09T14:39:10.818Z,99570.13
2022-10-09T14:41:38.039Z,99568.31
2022-10-09T14:44:05.514Z,99572.34
2022-10-09T14:46:34.090Z,99565.00
2022-10-09T14:49:07.202Z,99554.09
2022-10-09T14:51:38.167Z,99556.97
2022-10-09T14:54:06.301Z,99543.28
2022-10-09T14:56:33.743Z,99539.63
2022-10-09T14:59:01.012Z,99541.13
2022-10-09T15:01:29.340Z,99543.28
2022-10-09T15:03:55.883Z,99535.25
2022-10-09T15:06:25.482Z,99528.59
2022-10-09T15:08:56.626Z,99525.59
2022-10-09T15:11:23.937Z,99522.91
2022-10-09T15:13:50.379Z,99523.88
2022-10-09T15:16:18.537Z,99522.34
2022-10-09T15:18:46.268Z,99518.34
2022-10-09T15:21:18.947Z,99528.00
2022-10-09T15:23:46.521Z,99506.16
2022-10-09T15:26:13.956Z,99508.34
2022-10-09T15:28:42.997Z,99504.31
2022-10-09T15:31:22.868Z,99510.34
2022-10-09T15:33:54.162Z,99495.91
2022-10-09T15:36:22.151Z,99501.75
2022-10-09T15:38:48.965Z,99489.41
2022-10-09T15:41:25.169Z,99497.41
2022-10-09T15:43:54.614Z,99491.91
2022-10-09T15:46:21.477Z,99491.34
2022-10-09T15:48:48.404Z,99496.88
2022-10-09T15:51:15.375Z,99488.31
2022-10-09T15:53:44.065Z,99487.66
2022-10-09T15:56:14.267Z,99491.28
2022-10-09T15:58:41.291Z,99492.91
2022-10-09T16:01:10.497Z,99490.56
2022-10-09T16:03:38.055Z,99495.47
2022-10-09T16:06:07.768Z,99491.97
2022-10-09T16:08:35.137Z,99488.44
2022-10-09T16:11:05.726Z,99488.91
2022-10-09T16:13:35.067Z,99496.41
2022-10-09T16:16:04.434Z,99495.63
2022-10-09T16:18:31.062Z,99485.59
2022-10-09T16:21:04.275Z,99486.88
2022-10-09T16:23:30.731Z,99472.31
2022-10-09T16:25:58.921Z,99477.25
2022-10-09T16:28:26.385Z,99474.63
2022-10-09T16:30:52.969Z,99467.97
2022-10-09T16:33:19.440Z,99458.91
2022-10-09T16:35:46.394Z,99453.81
2022-10-09T16:38:13.967Z,99447.69
2022-10-09T16:41:01.286Z,99450.38
2022-10-09T16:43:28.882Z,99445.97
2022-10-09T16:45:55.296Z,99417.09
2022-10-09T16:48:21.880Z,99366.38
2022-10-09T16:50:48.278Z,99350.56
2022-10-09T16:53:14.847Z,99309.66
2022-10-09T16:55:41.262Z,99286.75
2022-10-09T16:58:07.683Z,99254.84
2022-10-09T17:00:34.135Z,99235.88
2022-10-09T17:03:00.661Z,99222.38
2022-10-09T17:05:27.311Z,99195.59
2022-10-09T17:07:54.464Z,99187.84
2022-10-09T17:10:20.949Z,99178.38
2022-10-09T17:12:47.391Z,99184.56
2022-10-09T17:15:13.879Z,99182.31
2022-10-09T17:17:41.003Z,99168.94
2022-10-09T17:20:08.015Z,99155.31
2022-10-09T17:22:34.446Z,99125.50
2022-10-09T17:25:00.881Z,99116.56
2022-10-09T17:27:27.300Z,99093.47
2022-10-09T17:29:53.800Z,99092.78
2022-10-09T17:32:20.223Z,99074.81
2022-10-09T17:34:46.726Z,99074.53
2022-10-09T17:37:13.507Z,99066.78
2022-10-09T17:39:40.020Z,99052.69
2022-10-09T17:42:06.568Z,99039.03
2022-10-09T17:44:32.996Z,99029.56
2022-10-09T17:47:00.845Z,99012.88
2022-10-09T17:49:27.681Z,98990.59
2022-10-09T17:51:54.528Z,98974.59
2022-10-09T17:54:21.409Z,98969.84
2022-10-09T17:56:47.845Z,98938.09
2022-10-09T17:59:15.669Z,98916.66
2022-10-09T18:01:42.636Z,98890.50
2022-10-09T18:04:14.460Z,98879.66
2022-10-09T18:06:40.886Z,98860.34
2022-10-09T18:09:07.345Z,98842.66
2022-10-09T18:11:33.853Z,98813.47
2022-10-09T18:14:00.525Z,98790.50
2022-10-09T18:16:36.439Z,98776.63
2022-10-09T18:19:06.634Z,98746.47
2022-10-09T18:21:34.376Z,98720.06
2022-10-09T18:24:00.824Z,98693.81
2022-10-09T18:26:27.371Z,98674.50
2022-10-09T18:28:53.876Z,98641.69
2022-10-09T18:31:23.590Z,98614.47
2022-10-09T18:33:50.402Z,98611.69
2022-10-09T18:36:20.013Z,98586.44
2022-10-09T18:38:49.065Z,98547.00
2022-10-09T18:41:16.863Z,98536.63
2022-10-09T18:43:43.248Z,98518.97
2022-10-09T18:46:10.058Z,98482.34
2022-10-09T18:48:39.534Z,98468.75
2022-10-09T18:51:10.282Z,98456.66
2022-10-09T18:53:38.704Z,98432.38
2022-10-09T18:56:07.043Z,98432.38
2022-10-09T18:58:35.411Z,98422.38
2022-10-09T19:01:06.639Z,98422.00
2022-10-09T19:03:33.880Z,98410.19
2022-10-09T19:06:00.306Z,98398.81
2022-10-09T19:08:27.541Z,98381.59
2022-10-09T19:10:54.079Z,98385.81
2022-10-09T19:13:20.729Z,98354.72
2022-10-09T19:15:54.546Z,98302.81
2022-10-09T19:18:22.077Z,98289.09
2022-10-09T19:20:49.389Z,98269.56
2022-10-09T19:23:16.033Z,98244.59
2022-10-09T19:25:47.569Z,98229.94
2022-10-09T19:28:14.196Z,98212.75
2022-10-09T19:30:41.976Z,98193.50
2022-10-09T19:33:08.705Z,98161.91
2022-10-09T19:35:35.607Z,98138.03
2022-10-09T19:38:03.260Z,98083.44
2022-10-09T19:40:29.914Z,98016.34
2022-10-09T19:42:56.433Z,97948.56
2022-10-09T19:45:23.003Z,97915.25
2022-10-09T19:47:54.114Z,97895.97
2022-10-09T19:50:21.248Z,97832.84
2022-10-09T19:52:47.782Z,97751.75
2022-10-09T19:55:14.567Z,97693.06
2022-10-09T19:57:41.118Z,97648.19
2022-10-09T20:00:09.022Z,97629.94
2022-10-09T20:02:35.506Z,97676.91
2022-10-09T20:05:01.948Z,97705.13
2022-10-09T20:07:28.909Z,97715.66
2022-10-09T20:09:55.432Z,97713.84
2022-10-09T20:12:21.951Z,97737.13
2022-10-09T20:14:48.551Z,97735.91
2022-10-09T20:17:15.112Z,97752.00
2022-10-09T20:19:45.517Z,97753.97
2022-10-09T20:22:12.296Z,97753.09
2022-10-09T20:24:38.898Z,97749.81
2022-10-09T20:27:05.290Z,97770.44
2022-10-09T20:29:31.723Z,97774.59
2022-10-09T20:31:58.338Z,97770.44
2022-10-09T20:34:26.970Z,97774.03
2022-10-09T20:36:53.834Z,97766.34
2022-10-09T20:39:21.497Z,97770.75
2022-10-09T20:41:48.742Z,97765.56
2022-10-09T20:44:15.190Z,97753.09
2022-10-09T20:46:42.526Z,97755.31
2022-10-09T20:49:12.433Z,97756.44
2022-10-09T20:51:40.164Z,97754.53
2022-10-09T20:54:08.608Z,97796.59
2022-10-09T20:56:35.397Z,97808.75
2022-10-09T20:59:02.999Z,97810.34
2022-10-09T21:01:29.694Z,97803.78
2022-10-09T21:03:57.677Z,97799.63
2022-10-09T21:06:24.090Z,97791.63
2022-10-09T21:08:50.888Z,97785.56
2022-10-09T21:11:18.923Z,97784.19
2022-10-09T21:13:46.349Z,97770.34
2022-10-09T21:16:16.398Z,97768.44
2022-10-09T21:18:42.842Z,97769.50
2022-10-09T21:21:12.830Z,97751.63
2022-10-09T21:23:40.064Z,97767.28
2022-10-09T21:26:12.051Z,97757.00
2022-10-09T21:28:38.969Z,97758.69
2022-10-09T21:31:13.317Z,97763.69
2022-10-09T21:33:39.915Z,97755.78
2022-10-09T21:36:22.655Z,97752.03
2022-10-09T21:38:49.047Z,97755.66
2022-10-09T21:41:15.545Z,97763.75
2022-10-09T21:43:42.014Z,97769.84
2022-10-09T21:46:08.422Z,97772.59
2022-10-09T21:48:34.830Z,97761.84
2022-10-09T21:51:01.380Z,97757.03
2022-10-09T21:53:27.791Z,97747.88
2022-10-09T21:55:54.166Z,97746.09
2022-10-09T21:58:20.760Z,97750.09
2022-10-09T22:00:55.465Z,97735.59
2022-10-09T22:03:24.284Z,97746.38
2022-10-09T22:05:50.682Z,97736.69
2022-10-09T22:08:17.304Z,97739.88
2022-10-09T22:10:43.688Z,97742.69
2022-10-09T22:13:10.080Z,97740.59
2022-10-09T22:15:41.231Z,97742.81
2022-10-09T22:18:07.714Z,97731.50
2022-10-09T22:20:39.030Z,97733.69
2022-10-09T22:23:06.874Z,97747.78
2022-10-09T22:25:33.333Z,97733.72
2022-10-09T22:27:59.959Z,97729.16
2022-10-09T22:30:26.616Z,97734.13
2022-10-09T22:32:54.149Z,97715.50
2022-10-09T22:35:21.377Z,97707.47
2022-10-09T22:37:47.856Z,97699.19
2022-10-09T22:40:14.297Z,97711.91
2022-10-09T22:42:40.705Z,97709.97
2022-10-09T22:45:08.011Z,97701.69
2022-10-09T22:47:34.415Z,97678.09
2022-10-09T22:50:00.922Z,97701.41
2022-10-09T22:52:28.464Z,97676.44
2022-10-09T22:54:55.638Z,97695.91
2022-10-09T22:57:22.090Z,97702.53
2022-10-09T22:59:48.569Z,97684.84
2022-10-09T23:02:15.108Z,97693.13
2022-10-09T23:04:41.471Z,97695.34
2022-10-09T23:07:08.026Z,97686.75
2022-10-09T23:09:34.444Z,97697.56
2022-10-09T23:12:00.914Z,97694.38
2022-10-09T23:14:27.679Z,97685.41
2022-10-09T23:16:54.094Z,97681.53
2022-10-09T23:19:20.540Z,97684.00
2022-10-09T23:21:47.188Z,97679.28
2022-10-09T23:24:18.003Z,97685.41
2022-10-09T23:26:46.350Z,97683.03
2022-10-09T23:29:15.648Z,97685.09
2022-10-09T23:31:42.299Z,97683.44
2022-10-09T23:34:08.806Z,97671.28
2022-10-09T23:36:35.454Z,97675.56
2022-10-09T23:39:04.712Z,97663.31
2022-10-09T23:41:31.164Z,97662.34
2022-10-09T23:43:57.729Z,97655.72
2022-10-09T23:46:27.579Z,97659.47
2022-10-09T23:48:54.830Z,97651.72
2022-10-09T23:51:24.384Z,97662.22
2022-10-09T23:53:50.807Z,97669.59
2022-10-09T23:56:19.590Z,97658.63
2022-10-09T23:58:46.863Z,97660.28
